Time;durP1;ratioP1;P1;durP2;ratioP2;P2;SDS_P1;SDS_P2;PMS_P1;PMS_P2;Temp;Humidity;BMP_temperature;BMP_pressure;BME280_temperature;BME280_humidity;BME280_pressure;Samples;Min_cycle;Max_cycle;Signal;HPM_P1;HPM_P2
2023/01/09 00:00:08;;;;;;;1.02;0.80;;;;;;;10.56;74.52;97849.19;4994133;28;20222;-83
2023/01/09 00:02:35;;;;;;;0.80;0.65;;;;;;;10.55;74.45;97846.69;5009924;28;20853;-84
2023/01/09 00:05:04;;;;;;;1.10;0.80;;;;;;;10.59;74.19;97848.88;5010918;28;20203;-86
2023/01/09 00:07:34;;;;;;;0.75;0.70;;;;;;;10.60;74.11;97839.22;4996755;28;20758;-86
2023/01/09 00:09:59;;;;;;;0.90;0.90;;;;;;;10.59;74.15;97845.44;5011177;28;20207;-85
2023/01/09 00:12:25;;;;;;;1.10;1.00;;;;;;;10.63;73.99;97844.19;4993568;28;20214;-84
2023/01/09 00:14:50;;;;;;;1.27;0.87;;;;;;;10.67;74.03;97836.88;5009965;28;20305;-85
2023/01/09 00:17:16;;;;;;;1.00;0.73;;;;;;;10.67;73.62;97839.50;5012154;28;20274;-83
2023/01/09 00:19:45;;;;;;;1.50;1.02;;;;;;;10.71;73.71;97841.66;4995076;28;20198;-83
2023/01/09 00:22:31;;;;;;;0.93;0.80;;;;;;;10.73;73.48;97844.16;5014316;28;20202;-84
2023/01/09 00:25:17;;;;;;;1.35;0.80;;;;;;;10.74;73.46;97845.81;5025046;28;20304;-87
2023/01/09 00:27:43;;;;;;;0.90;0.70;;;;;;;10.75;73.29;97837.81;5032456;28;20246;-83
2023/01/09 00:30:11;;;;;;;1.70;0.88;;;;;;;10.78;73.02;97839.31;5012582;28;20228;-83
2023/01/09 00:32:46;;;;;;;1.10;0.88;;;;;;;10.79;72.73;97840.97;5003726;28;20715;-83
2023/01/09 00:35:15;;;;;;;1.80;0.97;;;;;;;10.81;72.81;97847.72;5014192;28;20197;-83
2023/01/09 00:37:41;;;;;;;1.15;0.70;;;;;;;10.79;72.03;97849.66;5020684;28;20424;-86
2023/01/09 00:40:06;;;;;;;1.70;1.00;;;;;;;10.81;71.95;97846.91;5033119;28;20194;-83
2023/01/09 00:42:35;;;;;;;0.80;0.80;;;;;;;10.81;72.11;97839.84;5034187;28;20198;-83
2023/01/09 00:45:06;;;;;;;0.80;0.80;;;;;;;10.81;71.97;97846.91;5033994;28;20198;-84
2023/01/09 00:47:37;;;;;;;1.33;0.90;;;;;;;10.80;72.00;97830.34;5033373;28;20229;-83
2023/01/09 00:50:10;;;;;;;1.13;0.90;;;;;;;10.79;71.99;97844.41;5013095;28;20264;-85
2023/01/09 00:52:38;;;;;;;2.85;1.00;;;;;;;10.79;72.09;97843.59;5013648;28;20308;-83
2023/01/09 00:55:05;;;;;;;0.98;0.82;;;;;;;10.77;72.10;97841.09;5033240;28;20211;-87
2023/01/09 00:57:30;;;;;;;1.30;0.80;;;;;;;10.77;72.17;97843.72;5030229;28;20293;-84
2023/01/09 00:59:57;;;;;;;0.73;0.73;;;;;;;10.78;71.81;97844.56;5030577;28;20331;-83
2023/01/09 01:02:22;;;;;;;0.90;0.90;;;;;;;10.76;71.85;97842.06;4893278;28;20216;-84
2023/01/09 01:07:37;;;;;;;1.27;1.17;;;;;;;10.70;72.07;97847.06;5003997;28;20235;-83
2023/01/09 01:10:05;;;;;;;1.13;0.90;;;;;;;10.70;71.78;97847.91;4993285;28;20583;-83
2023/01/09 01:12:30;;;;;;;1.20;0.80;;;;;;;10.69;71.78;97846.22;4993368;28;20237;-85
2023/01/09 01:14:56;;;;;;;1.00;0.70;;;;;;;10.68;71.47;97860.34;4994649;28;20214;-85
2023/01/09 01:17:21;;;;;;;1.17;0.83;;;;;;;10.55;71.96;97847.50;4993568;28;20355;-84
2023/01/09 01:19:47;;;;;;;1.87;0.80;;;;;;;10.54;72.22;97855.53;4995139;28;20217;-84
2023/01/09 01:22:12;;;;;;;0.83;0.80;;;;;;;10.53;72.04;97853.84;4994609;28;20586;-83
2023/01/09 01:24:38;;;;;;;1.00;0.70;;;;;;;10.49;71.83;97834.94;4993633;28;20190;-83
2023/01/09 01:27:03;;;;;;;0.80;0.73;;;;;;;10.49;71.60;97842.00;4994038;28;20575;-85
2023/01/09 01:29:28;;;;;;;1.00;0.80;;;;;;;10.48;71.32;97843.81;4994827;28;20231;-84
2023/01/09 01:31:54;;;;;;;0.93;0.70;;;;;;;10.46;71.32;97842.28;4993570;28;20210;-83
2023/01/09 01:34:19;;;;;;;1.00;0.70;;;;;;;10.37;71.03;97852.66;4995196;28;20217;-87
2023/01/09 01:36:45;;;;;;;1.00;0.60;;;;;;;10.40;71.08;97848.91;4979270;28;20224;-83
2023/01/09 01:39:10;;;;;;;0.70;0.60;;;;;;;10.39;70.55;97836.75;4997312;28;20649;-84
2023/01/09 01:41:36;;;;;;;1.13;0.60;;;;;;;10.39;70.64;97855.94;4998799;28;20202;-88
2023/01/09 01:44:05;;;;;;;0.70;0.70;;;;;;;10.38;70.26;97862.16;4997917;28;20248;-83
2023/01/09 01:46:32;;;;;;;1.10;1.00;;;;;;;10.38;70.05;97864.78;4997956;28;20207;-83
2023/01/09 01:49:09;;;;;;;0.77;0.60;;;;;;;10.36;70.25;97876.41;4996625;28;20232;-84
2023/01/09 01:51:40;;;;;;;5.53;1.25;;;;;;;10.32;69.78;97873.22;4996392;28;20207;-85
2023/01/09 01:54:11;;;;;;;2.05;0.90;;;;;;;10.29;69.60;97884.00;4996831;28;20248;-84
2023/01/09 01:56:45;;;;;;;1.70;1.20;;;;;;;10.29;69.57;97884.00;4999014;28;20205;-87
2023/01/09 01:59:22;;;;;;;1.08;0.60;;;;;;;10.28;69.35;97907.75;4998208;28;20735;-83
2023/01/09 02:01:51;;;;;;;1.02;0.90;;;;;;;10.28;69.50;97910.38;4998046;28;20233;-83
2023/01/09 02:04:17;;;;;;;1.55;1.00;;;;;;;10.25;69.56;97906.19;5007613;28;20498;-83
2023/01/09 02:06:43;;;;;;;0.80;0.80;;;;;;;10.25;69.62;97919.31;5016830;28;20195;-82
2023/01/09 02:09:13;;;;;;;1.40;0.88;;;;;;;10.22;69.94;97930.09;5015232;28;20809;-87
2023/01/09 02:11:46;;;;;;;0.82;0.73;;;;;;;10.16;70.14;97939.34;5016758;28;20233;-85
2023/01/09 02:14:13;;;;;;;1.40;0.88;;;;;;;10.13;70.17;97944.03;5015688;28;20757;-88
2023/01/09 02:16:46;;;;;;;1.02;0.82;;;;;;;10.11;70.03;97941.53;5016352;28;20206;-84
2023/01/09 02:19:27;;;;;;;1.15;0.88;;;;;;;10.07;70.20;97932.28;4984706;28;20235;-83
2023/01/09 02:22:20;;;;;;;1.85;1.02;;;;;;;10.08;70.32;97943.63;5015762;28;20198;-83
2023/01/09 02:25:00;;;;;;;2.05;0.70;;;;;;;10.04;70.29;97948.28;5014416;28;20209;-85
2023/01/09 02:27:50;;;;;;;2.20;0.82;;;;;;;10.06;70.56;97951.59;4980686;28;20237;-84
2023/01/09 02:30:40;;;;;;;1.10;1.00;;;;;;;10.03;70.28;97962.38;4995344;28;20225;-83
2023/01/09 02:33:10;;;;;;;0.70;0.60;;;;;;;10.03;70.45;97956.31;4993838;28;20738;-84
2023/01/09 02:35:44;;;;;;;0.77;0.70;;;;;;;10.03;70.43;97967.63;4992541;28;20196;-83
2023/01/09 02:38:12;;;;;;;2.40;0.90;;;;;;;10.03;70.60;97964.16;4992938;28;20218;-83
2023/01/09 02:40:46;;;;;;;1.05;0.70;;;;;;;10.03;70.40;97980.72;4993045;28;20250;-83
2023/01/09 02:43:12;;;;;;;0.80;0.70;;;;;;;10.04;70.48;97984.19;4992375;28;20195;-83
2023/01/09 02:45:38;;;;;;;1.42;0.93;;;;;;;10.02;70.53;97983.47;4991432;28;20205;-83
2023/01/09 02:48:03;;;;;;;0.80;0.63;;;;;;;10.00;70.25;98004.59;4991450;28;20330;-83
2023/01/09 02:50:40;;;;;;;1.30;0.90;;;;;;;10.00;70.08;98022.16;4999260;28;20194;-85
2023/01/09 02:53:44;;;;;;;0.80;0.70;;;;;;;9.97;70.12;98021.44;4998416;28;20211;-84
2023/01/09 02:56:33;;;;;;;0.90;0.60;;;;;;;9.94;70.13;98042.69;4995243;28;20286;-83
2023/01/09 02:59:23;;;;;;;0.90;0.80;;;;;;;9.94;70.07;98052.38;4996650;28;20219;-83
2023/01/09 03:02:13;;;;;;;0.90;0.70;;;;;;;9.92;69.92;98057.72;4997659;28;20196;-84
2023/01/09 03:04:45;;;;;;;0.70;0.70;;;;;;;9.93;70.23;98084.78;4996089;28;20543;-84
2023/01/09 03:07:21;;;;;;;0.80;0.70;;;;;;;9.91;70.26;98090.19;4996150;28;20222;-85
2023/01/09 03:09:51;;;;;;;1.50;0.95;;;;;;;9.89;70.12;98110.44;5014785;28;20209;-84
2023/01/09 03:12:21;;;;;;;2.20;0.65;;;;;;;9.88;70.31;98103.56;5015351;28;20209;-83
2023/01/09 03:14:49;;;;;;;1.02;0.75;;;;;;;9.84;70.58;98103.94;5017242;28;20205;-83
2023/01/09 03:17:21;;;;;;;0.82;0.70;;;;;;;9.78;70.91;98123.63;5016772;28;20195;-84
2023/01/09 03:19:49;;;;;;;0.70;0.70;;;;;;;9.74;71.16;98143.19;5016939;28;20585;-84
2023/01/09 03:22:15;;;;;;;0.93;0.68;;;;;;;9.73;71.12;98152.03;5017067;28;20199;-83
2023/01/09 03:24:40;;;;;;;1.20;0.70;;;;;;;9.70;71.36;98162.78;5018011;28;20201;-86
2023/01/09 03:27:07;;;;;;;0.90;0.83;;;;;;;9.67;71.31;98176.16;5016979;28;20486;-85
2023/01/09 03:29:33;;;;;;;0.70;0.60;;;;;;;9.64;71.51;98172.00;5017917;28;20230;-84
2023/01/09 03:31:58;;;;;;;2.50;0.80;;;;;;;9.62;71.53;98189.63;5017317;28;20198;-84
2023/01/09 03:34:23;;;;;;;2.40;1.00;;;;;;;9.62;71.39;98194.88;5016109;28;20219;-83
2023/01/09 03:36:49;;;;;;;0.67;0.67;;;;;;;9.61;71.18;98202.84;5017234;28;20233;-83
2023/01/09 03:39:14;;;;;;;0.70;0.50;;;;;;;9.60;70.78;98206.44;5004796;28;20556;-82
2023/01/09 03:41:40;;;;;;;0.70;0.60;;;;;;;9.59;70.06;98220.50;4977326;28;20265;-83
2023/01/09 03:44:05;;;;;;;0.60;0.50;;;;;;;9.58;68.36;98230.16;5016494;28;20648;-83
2023/01/09 03:46:30;;;;;;;0.60;0.50;;;;;;;9.56;68.02;98233.84;5015984;28;20229;-82
2023/01/09 03:48:56;;;;;;;0.60;0.53;;;;;;;9.52;67.40;98236.72;5016249;28;20703;-83
2023/01/09 03:51:22;;;;;;;0.70;0.60;;;;;;;9.48;66.22;98242.34;5023739;23;20242;-85
2023/01/09 03:53:47;;;;;;;0.60;0.50;;;;;;;9.43;65.15;98247.97;4988262;28;20203;-85
2023/01/09 03:56:12;;;;;;;1.07;0.50;;;;;;;9.38;64.46;98244.88;4991581;28;20266;-85
2023/01/09 03:58:38;;;;;;;0.70;0.60;;;;;;;9.36;63.74;98262.50;4989838;28;20203;-84
2023/01/09 04:01:08;;;;;;;0.70;0.60;;;;;;;9.34;63.09;98268.81;4992287;28;20213;-85
2023/01/09 04:03:33;;;;;;;1.00;0.90;;;;;;;9.29;62.51;98269.22;5005891;28;20432;-85
2023/01/09 04:06:00;;;;;;;1.33;0.60;;;;;;;9.24;61.50;98272.19;5009010;28;20610;-85
2023/01/09 04:08:25;;;;;;;0.85;0.60;;;;;;;9.21;61.74;98276.84;5011392;28;20481;-85
2023/01/09 04:10:51;;;;;;;0.60;0.50;;;;;;;9.17;61.92;98285.88;5007859;28;20194;-85
2023/01/09 04:13:17;;;;;;;0.60;0.40;;;;;;;9.09;62.26;98289.94;4982525;28;20247;-85
2023/01/09 04:15:42;;;;;;;0.60;0.50;;;;;;;9.02;62.52;98301.88;5007002;28;20537;-85
2023/01/09 04:18:08;;;;;;;1.23;0.50;;;;;;;8.94;63.21;98298.16;5007918;28;20203;-85
2023/01/09 04:20:33;;;;;;;0.60;0.50;;;;;;;8.86;63.53;98299.59;5008196;28;20206;-85
2023/01/09 04:22:58;;;;;;;0.90;0.80;;;;;;;8.82;63.90;98300.78;4990736;28;20218;-85
2023/01/09 04:25:25;;;;;;;0.60;0.50;;;;;;;8.75;63.92;98317.06;5007579;28;20558;-85
2023/01/09 04:27:50;;;;;;;0.65;0.52;;;;;;;8.66;63.66;98323.84;5011553;28;20376;-85
2023/01/09 04:30:16;;;;;;;1.00;0.60;;;;;;;8.58;63.92;98324.44;4990739;28;20209;-85
2023/01/09 04:32:42;;;;;;;0.70;0.60;;;;;;;8.51;63.86;98336.34;4992441;28;20224;-84
2023/01/09 04:35:07;;;;;;;1.80;0.70;;;;;;;8.47;63.85;98340.13;5010803;28;20199;-85
2023/01/09 04:37:35;;;;;;;0.80;0.60;;;;;;;8.43;63.75;98338.69;4992376;28;20195;-85
2023/01/09 04:40:06;;;;;;;0.95;0.50;;;;;;;8.37;63.43;98350.44;4955349;28;20499;-85
2023/01/09 04:42:32;;;;;;;1.15;0.50;;;;;;;8.33;63.69;98366.47;4949789;29;20228;-85
2023/01/09 04:44:57;;;;;;;0.60;0.50;;;;;;;8.30;63.91;98366.69;4949721;29;20190;-85
2023/01/09 04:47:23;;;;;;;0.67;0.50;;;;;;;8.27;64.07;98362.50;4949596;29;20204;-85
2023/01/09 04:49:48;;;;;;;1.43;0.50;;;;;;;8.22;64.52;98369.88;4949208;29;20221;-85
2023/01/09 04:52:14;;;;;;;1.60;0.70;;;;;;;8.18;64.84;98358.81;4949173;29;20244;-84
2023/01/09 04:54:39;;;;;;;0.80;0.60;;;;;;;8.14;65.17;98367.81;4950047;29;20287;-85
2023/01/09 04:57:05;;;;;;;0.60;0.50;;;;;;;8.12;65.34;98380.16;4951963;29;20561;-85
2023/01/09 04:59:30;;;;;;;0.90;0.60;;;;;;;8.10;65.47;98383.84;4949759;29;20192;-85
2023/01/09 05:01:57;;;;;;;0.63;0.50;;;;;;;8.08;65.81;98398.81;4949422;29;20219;-85
2023/01/09 05:04:23;;;;;;;0.70;0.52;;;;;;;8.06;65.87;98405.94;4949219;29;20201;-85
2023/01/09 05:06:48;;;;;;;0.80;0.70;;;;;;;8.05;65.69;98412.13;4949147;29;20238;-85
2023/01/09 05:09:14;;;;;;;0.70;0.60;;;;;;;8.06;66.03;98411.16;4948070;29;20212;-85
2023/01/09 05:11:39;;;;;;;1.10;0.70;;;;;;;8.07;66.22;98408.44;4947150;28;20227;-85
2023/01/09 05:14:04;;;;;;;1.63;0.60;;;;;;;8.04;66.47;98419.13;4950035;29;20205;-85
2023/01/09 05:16:30;;;;;;;2.93;1.23;;;;;;;8.06;66.42;98421.63;4950613;29;20204;-85
2023/01/09 05:18:56;;;;;;;1.90;0.60;;;;;;;8.04;66.74;98426.97;4931982;29;20557;-85
2023/01/09 05:21:25;;;;;;;1.43;0.67;;;;;;;8.04;66.85;98429.56;4949388;29;20221;-84
2023/01/09 05:23:50;;;;;;;1.10;0.70;;;;;;;8.04;66.77;98426.13;4949618;29;20234;-85
2023/01/09 05:26:16;;;;;;;0.60;0.60;;;;;;;8.04;66.92;98441.81;4949497;28;20485;-85
2023/01/09 05:28:41;;;;;;;1.50;0.83;;;;;;;8.02;67.03;98438.47;4952714;29;20223;-85
2023/01/09 05:31:07;;;;;;;2.17;0.90;;;;;;;8.02;66.91;98439.34;4955519;29;20283;-84
2023/01/09 05:33:32;;;;;;;0.80;0.70;;;;;;;8.01;67.25;98439.44;4953486;29;20917;-85
2023/01/09 05:35:58;;;;;;;1.13;0.80;;;;;;;8.00;66.79;98443.00;4953534;29;20202;-84
2023/01/09 05:38:23;;;;;;;1.87;1.00;;;;;;;8.00;66.97;98443.81;4959543;29;20220;-84
2023/01/09 05:40:48;;;;;;;1.43;0.70;;;;;;;7.97;66.83;98438.81;4960490;29;20565;-84
2023/01/09 05:43:14;;;;;;;1.87;1.00;;;;;;;7.96;66.48;98430.13;4960707;29;20294;-84
2023/01/09 05:45:39;;;;;;;1.97;1.00;;;;;;;7.95;66.63;98417.16;4962118;29;20205;-84
2023/01/09 05:48:05;;;;;;;2.03;0.97;;;;;;;7.93;66.39;98421.66;4961273;29;20221;-84
2023/01/09 05:50:30;;;;;;;1.37;0.80;;;;;;;7.86;66.52;98431.75;4962454;29;20689;-83
2023/01/09 05:52:55;;;;;;;0.60;0.53;;;;;;;7.83;66.39;98429.34;4962549;29;20238;-84
2023/01/09 05:55:21;;;;;;;1.00;0.90;;;;;;;7.80;66.43;98432.16;4962237;29;20207;-83
2023/01/09 05:57:46;;;;;;;1.10;0.90;;;;;;;7.81;66.17;98439.06;4960218;29;20298;-84
2023/01/09 06:00:12;;;;;;;1.90;0.80;;;;;;;7.79;66.24;98427.06;4977129;28;20712;-84
2023/01/09 06:02:38;;;;;;;6.28;1.00;;;;;;;7.77;66.32;98427.16;4961352;29;20219;-84
2023/01/09 06:05:03;;;;;;;2.70;1.00;;;;;;;7.79;66.54;98440.97;4960636;29;20438;-84
2023/01/09 06:07:29;;;;;;;1.40;0.73;;;;;;;7.80;66.58;98441.78;4961376;29;20874;-84
2023/01/09 06:09:54;;;;;;;2.30;0.83;;;;;;;7.76;66.41;98441.19;4960791;29;20214;-84
2023/01/09 06:12:19;;;;;;;1.27;0.83;;;;;;;7.73;65.96;98434.38;4960664;29;20256;-84
2023/01/09 06:14:45;;;;;;;1.10;0.90;;;;;;;7.71;65.97;98438.88;4944424;29;20205;-84
2023/01/09 06:17:11;;;;;;;3.43;1.03;;;;;;;7.74;65.97;98443.88;4959964;29;20260;-84
2023/01/09 06:19:36;;;;;;;7.47;2.20;;;;;;;7.73;65.81;98447.44;4959418;29;20637;-84
2023/01/09 06:22:01;;;;;;;2.10;1.10;;;;;;;7.72;65.95;98445.78;4960765;29;20223;-84
2023/01/09 06:24:27;;;;;;;1.67;0.90;;;;;;;7.70;66.12;98444.22;4960599;29;20204;-84
2023/01/09 06:26:52;;;;;;;2.93;0.90;;;;;;;7.69;65.96;98437.31;4961405;29;20193;-84
2023/01/09 06:29:17;;;;;;;2.03;0.90;;;;;;;7.68;66.16;98439.09;4960589;29;20231;-84
2023/01/09 06:31:43;;;;;;;1.87;1.10;;;;;;;7.63;66.29;98441.19;4961271;29;20539;-84
2023/01/09 06:34:08;;;;;;;1.63;0.90;;;;;;;7.64;65.78;98432.44;4960955;29;20233;-84
2023/01/09 06:36:34;;;;;;;1.27;0.87;;;;;;;7.62;66.14;98439.53;4960408;28;20197;-84
2023/01/09 06:38:59;;;;;;;2.83;0.90;;;;;;;7.59;66.19;98439.75;4962287;29;20191;-84
2023/01/09 06:41:25;;;;;;;1.10;0.90;;;;;;;7.58;66.50;98445.91;4962466;29;20427;-84
2023/01/09 06:43:51;;;;;;;1.23;0.97;;;;;;;7.54;66.67;98442.69;4960404;29;20199;-83
2023/01/09 06:46:16;;;;;;;3.33;1.10;;;;;;;7.54;66.49;98434.84;4961219;29;20226;-84
2023/01/09 06:48:41;;;;;;;1.07;0.97;;;;;;;7.53;66.46;98434.94;4962120;29;20228;-84
2023/01/09 06:51:07;;;;;;;2.03;1.10;;;;;;;7.52;66.64;98439.34;4962048;29;20232;-84
2023/01/09 06:53:33;;;;;;;3.17;1.50;;;;;;;7.52;66.45;98428.06;4961698;29;20204;-84
2023/01/09 06:56:01;;;;;;;1.25;0.93;;;;;;;7.50;66.39;98425.53;4963486;29;20211;-84
2023/01/09 06:58:26;;;;;;;4.00;0.95;;;;;;;7.49;66.49;98429.09;4946644;29;20264;-84
2023/01/09 07:00:52;;;;;;;2.47;1.07;;;;;;;7.47;66.41;98417.91;4961886;29;20232;-84
2023/01/09 07:03:19;;;;;;;2.25;0.90;;;;;;;7.46;66.56;98418.88;4961964;29;20703;-84
2023/01/09 07:05:45;;;;;;;1.10;0.90;;;;;;;7.40;66.66;98410.59;4962390;29;20186;-84
2023/01/09 07:08:11;;;;;;;4.82;1.40;;;;;;;7.37;66.78;98418.66;4960534;29;20220;-84
2023/01/09 07:10:36;;;;;;;1.90;0.90;;;;;;;7.34;66.47;98409.25;4942581;29;20405;-84
2023/01/09 07:13:02;;;;;;;2.60;0.80;;;;;;;7.32;66.62;98417.22;4943382;29;20222;-84
2023/01/09 07:15:27;;;;;;;1.80;1.13;;;;;;;7.34;66.61;98424.94;4939745;29;20302;-84
2023/01/09 07:17:53;;;;;;;1.60;1.07;;;;;;;7.36;66.34;98430.06;4935661;29;20197;-84
2023/01/09 07:20:19;;;;;;;1.17;0.90;;;;;;;7.33;66.08;98433.72;4934579;29;20183;-84
2023/01/09 07:22:45;;;;;;;3.85;1.40;;;;;;;7.34;65.79;98434.56;4934203;29;20628;-84
2023/01/09 07:25:11;;;;;;;5.18;2.20;;;;;;;7.33;66.22;98433.72;4934584;29;20387;-84
2023/01/09 07:27:36;;;;;;;4.83;1.20;;;;;;;7.36;65.40;98437.91;4920506;29;20184;-83
2023/01/09 07:30:03;;;;;;;5.07;1.00;;;;;;;7.37;65.45;98443.03;4921180;29;20553;-84
2023/01/09 07:32:28;;;;;;;5.15;1.70;;;;;;;7.38;65.38;98436.03;4937447;29;20253;-84
2023/01/09 07:34:54;;;;;;;4.10;1.17;;;;;;;7.40;64.96;98434.97;4938364;29;20520;-84
2023/01/09 07:37:19;;;;;;;2.97;1.47;;;;;;;7.45;64.74;98426.81;4938737;29;20195;-84
2023/01/09 07:39:45;;;;;;;3.37;1.83;;;;;;;7.47;64.54;98423.13;4944390;29;20203;-83
2023/01/09 07:42:10;;;;;;;3.20;1.40;;;;;;;7.50;63.95;98430.75;4944530;29;20798;-84
2023/01/09 07:44:36;;;;;;;5.30;2.53;;;;;;;7.56;64.00;98419.06;4943613;29;20193;-83
2023/01/09 07:47:01;;;;;;;3.40;1.90;;;;;;;7.59;63.75;98423.22;4939980;29;20735;-84
2023/01/09 07:49:26;;;;;;;4.33;2.07;;;;;;;7.63;63.53;98409.00;4932180;29;20298;-84
2023/01/09 07:51:52;;;;;;;4.63;2.50;;;;;;;7.61;63.38;98419.56;4933503;29;20599;-84
2023/01/09 07:54:17;;;;;;;4.07;1.60;;;;;;;7.66;63.08;98408.78;4933461;29;20470;-84
2023/01/09 07:56:43;;;;;;;1.73;1.30;;;;;;;7.70;63.05;98412.88;4934644;29;20183;-84
2023/01/09 07:59:08;;;;;;;12.40;1.53;;;;;;;7.72;62.76;98417.03;4934996;29;20195;-84
2023/01/09 08:01:34;;;;;;;7.90;1.30;;;;;;;7.75;62.67;98411.59;4935550;29;20207;-84
2023/01/09 08:03:59;;;;;;;4.43;1.10;;;;;;;7.79;62.74;98416.59;4936381;29;20174;-84
2023/01/09 08:06:24;;;;;;;1.97;1.20;;;;;;;7.82;62.38;98419.00;4936542;29;20194;-84
2023/01/09 08:08:50;;;;;;;3.80;1.20;;;;;;;7.87;62.08;98406.44;4944891;29;20330;-84
2023/01/09 08:11:15;;;;;;;6.60;1.87;;;;;;;7.91;62.01;98418.31;4958305;29;20213;-84
2023/01/09 08:13:41;;;;;;;1.70;0.93;;;;;;;7.93;61.79;98419.06;4940026;29;20185;-84
2023/01/09 08:16:07;;;;;;;5.60;1.03;;;;;;;7.95;61.47;98411.94;4959409;29;20219;-84
2023/01/09 08:18:32;;;;;;;0.90;0.73;;;;;;;7.96;61.76;98409.19;4962304;29;20616;-84
2023/01/09 08:20:58;;;;;;;2.87;1.20;;;;;;;8.04;61.41;98408.66;4962795;29;20441;-84
2023/01/09 08:23:23;;;;;;;3.23;1.67;;;;;;;8.02;61.42;98415.78;4962266;29;20177;-84
2023/01/09 08:25:48;;;;;;;3.33;1.20;;;;;;;8.08;61.15;98410.13;4962262;28;20177;-84
2023/01/09 08:28:14;;;;;;;3.70;1.10;;;;;;;8.14;61.09;98409.66;4962141;29;20207;-84
2023/01/09 08:30:39;;;;;;;2.57;1.30;;;;;;;8.18;61.05;98411.13;4963017;29;20197;-84
2023/01/09 08:33:05;;;;;;;2.20;0.93;;;;;;;8.20;60.93;98405.75;4962600;29;20242;-83
2023/01/09 08:35:30;;;;;;;3.60;1.50;;;;;;;8.24;61.25;98406.38;4961116;29;20487;-84
2023/01/09 08:37:55;;;;;;;2.50;1.10;;;;;;;8.25;61.16;98410.66;4962967;29;20454;-84
2023/01/09 08:40:21;;;;;;;4.20;1.47;;;;;;;8.31;61.01;98404.97;4961917;29;20249;-83
2023/01/09 08:48:15;;;;;;;5.07;1.15;;;;;;;8.46;60.24;98401.25;4963327;29;20234;-84
2023/01/09 08:50:42;;;;;;;2.40;1.10;;;;;;;8.66;60.07;98401.56;4963046;29;20207;-84
2023/01/09 08:53:08;;;;;;;7.22;1.17;;;;;;;9.26;58.65;98388.19;4945754;29;20509;-84
2023/01/09 08:55:34;;;;;;;6.40;1.90;;;;;;;10.11;56.11;98405.09;4962506;29;20194;-84
2023/01/09 08:57:59;;;;;;;3.13;1.10;;;;;;;10.78;53.85;98399.56;4962240;29;20167;-84
2023/01/09 09:00:25;;;;;;;2.67;1.10;;;;;;;11.35;52.48;98407.06;4977263;28;20181;-84
2023/01/09 09:02:56;;;;;;;4.37;1.03;;;;;;;11.70;51.48;98386.41;4964789;29;20201;-83
2023/01/09 09:05:24;;;;;;;4.05;1.15;;;;;;;11.68;51.41;98403.31;4957403;29;20180;-84
2023/01/09 09:07:52;;;;;;;3.50;1.77;;;;;;;11.72;51.33;98409.97;4964436;29;20185;-84
2023/01/09 09:10:18;;;;;;;5.35;1.88;;;;;;;11.98;50.29;98399.78;4964042;29;20181;-83
2023/01/09 09:12:47;;;;;;;3.97;1.27;;;;;;;12.18;49.95;98403.31;4964051;29;20298;-84
2023/01/09 09:15:12;;;;;;;2.20;1.30;;;;;;;12.44;49.15;98403.56;4963397;29;20412;-85
2023/01/09 09:17:39;;;;;;;1.67;1.00;;;;;;;12.63;48.68;98400.09;4962491;29;20177;-84
2023/01/09 09:20:06;;;;;;;3.28;1.80;;;;;;;12.96;47.83;98408.50;4963579;29;20781;-84
2023/01/09 09:22:31;;;;;;;6.57;1.90;;;;;;;13.17;46.99;98395.13;4963225;29;20320;-84
2023/01/09 09:24:56;;;;;;;2.03;1.10;;;;;;;12.84;47.82;98402.56;4962822;29;20212;-84
2023/01/09 09:27:22;;;;;;;2.67;1.40;;;;;;;12.45;48.71;98407.03;4947333;29;20448;-84
2023/01/09 09:29:47;;;;;;;2.50;1.97;;;;;;;12.01;49.64;98396.88;4960168;29;20217;-84
2023/01/09 09:32:13;;;;;;;1.37;1.20;;;;;;;11.43;50.93;98402.81;4953638;29;20558;-84
2023/01/09 09:34:38;;;;;;;5.70;1.40;;;;;;;10.88;52.55;98419.81;4955462;29;20272;-84
2023/01/09 09:37:04;;;;;;;4.70;1.30;;;;;;;10.35;53.89;98415.44;4958425;29;20181;-84
2023/01/09 09:39:29;;;;;;;2.30;1.37;;;;;;;9.93;55.15;98412.66;4965330;29;20188;-84
2023/01/09 09:45:14;;;;;;;1.95;1.10;;;;;;;9.38;57.24;98417.84;4966830;29;20313;-85
2023/01/09 09:47:57;;;;;;;4.32;1.05;;;;;;;9.25;57.94;98404.03;4965609;29;20437;-83
2023/01/09 09:51:01;;;;;;;1.63;0.90;;;;;;;9.17;58.41;98424.75;4965150;29;20177;-84
2023/01/09 09:53:42;;;;;;;1.73;1.23;;;;;;;9.11;58.64;98436.53;5028873;23;20248;-86
2023/01/09 09:56:16;;;;;;;5.03;1.50;;;;;;;9.18;58.61;98435.13;4951747;29;20263;-85
2023/01/09 09:58:52;;;;;;;3.70;1.17;;;;;;;9.23;58.62;98426.88;4952735;29;20181;-87
2023/01/09 10:01:26;;;;;;;2.30;1.40;;;;;;;9.34;58.48;98442.59;4954882;28;20177;-84
2023/01/09 10:03:55;;;;;;;6.57;1.33;;;;;;;9.44;58.33;98432.25;4972836;28;20427;-83
2023/01/09 10:06:33;;;;;;;6.03;1.50;;;;;;;9.48;58.16;98447.63;4973208;28;20431;-84
2023/01/09 10:09:23;;;;;;;2.58;0.98;;;;;;;9.52;57.83;98425.44;4978510;28;20708;-83
2023/01/09 10:12:04;;;;;;;5.28;1.08;;;;;;;9.57;57.82;98440.00;4990739;28;20560;-84
2023/01/09 10:14:31;;;;;;;2.25;1.00;;;;;;;9.64;57.82;98441.16;4974817;28;20628;-86
2023/01/09 10:17:18;;;;;;;2.95;1.10;;;;;;;9.70;57.74;98438.91;4991607;28;20182;-84
2023/01/09 10:20:18;;;;;;;6.35;1.23;;;;;;;9.78;57.51;98448.81;4991388;28;20185;-84
2023/01/09 10:22:49;;;;;;;2.40;1.17;;;;;;;9.79;57.44;98441.75;4992289;28;20195;-83
2023/01/09 10:25:29;;;;;;;2.25;0.90;;;;;;;9.80;57.28;98439.00;4991698;28;20187;-84
2023/01/09 10:28:12;;;;;;;5.70;1.02;;;;;;;9.83;57.67;98449.28;4991303;28;20211;-84
2023/01/09 10:30:47;;;;;;;3.75;1.40;;;;;;;9.80;57.43;98443.41;4991343;28;20203;-84
2023/01/09 10:33:36;;;;;;;1.83;1.65;;;;;;;9.77;57.81;98452.38;4974236;28;20202;-84
2023/01/09 10:36:10;;;;;;;2.13;0.95;;;;;;;9.74;57.66;98439.50;4991474;28;20183;-85
2023/01/09 10:38:41;;;;;;;2.85;1.35;;;;;;;9.68;58.01;98437.38;4991494;28;20174;-86
2023/01/09 10:41:26;;;;;;;4.25;0.90;;;;;;;9.67;58.22;98433.09;4991509;28;20656;-84
2023/01/09 10:44:07;;;;;;;6.47;1.38;;;;;;;9.61;58.14;98425.69;4990588;28;20217;-84
2023/01/09 10:46:46;;;;;;;3.28;1.63;;;;;;;9.60;58.74;98432.72;4991127;28;20682;-87
2023/01/09 10:49:16;;;;;;;1.88;1.00;;;;;;;9.52;59.74;98440.34;4990789;28;20273;-85
2023/01/09 10:51:47;;;;;;;2.53;1.20;;;;;;;9.46;60.89;98439.03;4973043;28;20292;-85
2023/01/09 10:54:18;;;;;;;4.00;1.30;;;;;;;9.38;62.34;98441.44;4989970;28;20586;-86
2023/01/09 10:56:53;;;;;;;6.68;1.13;;;;;;;9.23;63.35;98439.97;4973277;28;20189;-85
2023/01/09 10:59:19;;;;;;;4.30;1.70;;;;;;;9.13;63.99;98437.25;4991254;28;20188;-84
2023/01/09 11:01:44;;;;;;;3.90;1.20;;;;;;;9.05;64.95;98440.44;4972794;28;20392;-85
2023/01/09 11:04:23;;;;;;;3.83;1.40;;;;;;;8.97;65.08;98431.50;4990419;28;20514;-84
2023/01/09 11:06:55;;;;;;;4.93;2.38;;;;;;;8.91;65.61;98429.34;4990468;28;20189;-85
2023/01/09 11:09:21;;;;;;;2.35;2.00;;;;;;;8.89;65.59;98439.94;4981663;28;20209;-84
2023/01/09 11:11:46;;;;;;;7.73;4.00;;;;;;;8.89;65.74;98429.47;4970508;28;20280;-86
2023/01/09 11:14:26;;;;;;;5.10;2.90;;;;;;;8.88;65.99;98433.00;4970633;28;20221;-86
2023/01/09 11:17:02;;;;;;;10.02;6.38;;;;;;;8.88;66.12;98426.94;4970681;28;20181;-83
2023/01/09 11:19:30;;;;;;;2.55;1.45;;;;;;;8.91;66.02;98429.34;4970802;28;20534;-84
2023/01/09 11:22:07;;;;;;;2.45;1.10;;;;;;;8.85;65.94;98428.00;4953997;28;20215;-84
2023/01/09 11:24:33;;;;;;;1.50;1.40;;;;;;;8.82;65.53;98433.47;4953904;28;20270;-83
2023/01/09 11:27:22;;;;;;;2.40;1.53;;;;;;;8.86;65.49;98440.19;4971339;28;20617;-84
2023/01/09 11:30:18;;;;;;;3.63;1.50;;;;;;;8.94;65.20;98443.06;4971020;28;20263;-84
2023/01/09 11:32:47;;;;;;;2.65;1.23;;;;;;;8.93;65.18;98446.59;4953931;28;20300;-84
2023/01/09 11:35:32;;;;;;;2.10;0.80;;;;;;;8.95;65.01;98452.56;4966406;28;20190;-83
2023/01/09 11:38:03;;;;;;;0.80;0.80;;;;;;;8.94;65.13;98432.56;4948616;28;20187;-84
2023/01/09 11:40:34;;;;;;;1.30;1.15;;;;;;;8.93;64.98;98449.22;4965773;28;20186;-85
2023/01/09 11:43:12;;;;;;;0.88;0.75;;;;;;;8.92;64.65;98444.13;4948772;28;20689;-83
2023/01/09 11:45:44;;;;;;;1.17;0.75;;;;;;;8.88;64.71;98430.41;4965964;28;20295;-83
2023/01/09 11:48:45;;;;;;;0.85;0.75;;;;;;;8.84;64.67;98450.75;4965258;28;20211;-85
2023/01/09 11:51:29;;;;;;;0.95;0.82;;;;;;;8.82;64.90;98464.91;4966581;28;20183;-88
2023/01/09 11:54:05;;;;;;;0.88;0.60;;;;;;;8.80;64.82;98464.19;4965151;28;20228;-84
2023/01/09 11:56:31;;;;;;;2.75;0.85;;;;;;;8.78;65.48;98476.56;4965556;28;20216;-84
2023/01/09 11:58:58;;;;;;;1.50;0.90;;;;;;;8.77;65.66;98470.47;4966651;28;20509;-87